Time,TemperatureF,DewpointF,PressureIn,WindDirection,WindDirectionDegrees,WindSpeedMPH,WindSpeedGustMPH,Humidity,HourlyPrecipIn,Conditions,Clouds,dailyrainin,SolarRadiationWatts/m^2,SoftwareType,DateUTC
2013-10-18 00:01:00,55.0,7.0,-100.00,SW,234,4.0,11.0,14,0.00,,,0.00,0.000000,,2013-10-18 06:01:00,
2013-10-18 00:42:00,55.0,7.0,-100.00,SW,234,4.0,11.0,14,0.00,,,0.00,0.000000,,2013-10-18 06:42:00,
2013-10-18 00:52:00,55.0,7.0,-100.00,SW,234,4.0,11.0,14,0.00,,,0.00,0.000000,,2013-10-18 06:52:00,
2013-10-18 01:01:00,51.0,6.0,-100.00,West,278,5.0,11.0,16,0.00,,,0.00,0.000000,,2013-10-18 07:01:00,
2013-10-18 01:42:00,51.0,6.0,-100.00,West,278,5.0,11.0,16,0.00,,,0.00,0.000000,,2013-10-18 07:42:00,
2013-10-18 01:52:00,51.0,6.0,-100.00,West,278,5.0,11.0,16,0.00,,,0.00,0.000000,,2013-10-18 07:52:00,
2013-10-18 02:01:00,52.0,7.0,-100.00,WNW,290,6.0,9.0,16,0.00,,,0.00,0.000000,,2013-10-18 08:01:00,
2013-10-18 02:22:00,52.0,7.0,-100.00,WNW,290,6.0,9.0,16,0.00,,,0.00,0.000000,,2013-10-18 08:22:00,
2013-10-18 02:32:00,52.0,7.0,-100.00,WNW,290,6.0,9.0,16,0.00,,,0.00,0.000000,,2013-10-18 08:32:00,
2013-10-18 02:42:00,52.0,7.0,-100.00,WNW,290,6.0,9.0,16,0.00,,,0.00,0.000000,,2013-10-18 08:42:00,
2013-10-18 02:52:00,52.0,7.0,-100.00,WNW,290,6.0,9.0,16,0.00,,,0.00,0.000000,,2013-10-18 08:52:00,
2013-10-18 03:01:00,49.0,6.0,-100.00,NW,322,4.0,10.0,17,0.00,,,0.00,0.000000,,2013-10-18 09:01:00,
2013-10-18 03:43:00,49.0,6.0,-100.00,NW,322,4.0,10.0,17,0.00,,,0.00,0.000000,,2013-10-18 09:43:00,
2013-10-18 03:53:00,49.0,6.0,-100.00,NW,322,4.0,10.0,17,0.00,,,0.00,0.000000,,2013-10-18 09:53:00,
2013-10-18 04:01:00,46.0,9.0,-100.00,North,351,4.0,7.0,22,0.00,,,0.00,0.000000,,2013-10-18 10:01:00,
2013-10-18 04:43:00,46.0,9.0,-100.00,North,351,4.0,7.0,22,0.00,,,0.00,0.000000,,2013-10-18 10:43:00,
2013-10-18 04:53:00,46.0,9.0,-100.00,North,351,4.0,7.0,22,0.00,,,0.00,0.000000,,2013-10-18 10:53:00,
2013-10-18 05:01:00,46.0,14.0,-100.00,North,4,6.0,8.0,27,0.00,,,0.00,0.000000,,2013-10-18 11:01:00,
2013-10-18 05:42:00,46.0,14.0,-100.00,North,4,6.0,8.0,27,0.00,,,0.00,0.000000,,2013-10-18 11:42:00,
2013-10-18 05:52:00,46.0,14.0,-100.00,North,4,6.0,8.0,27,0.00,,,0.00,0.000000,,2013-10-18 11:52:00,
2013-10-18 06:01:00,46.0,15.0,-100.00,North,355,5.0,8.0,28,0.00,,,0.00,0.000000,,2013-10-18 12:01:00,
2013-10-18 06:42:00,46.0,15.0,-100.00,North,355,5.0,8.0,28,0.00,,,0.00,0.000000,,2013-10-18 12:42:00,
2013-10-18 06:52:00,46.0,15.0,-100.00,North,355,5.0,8.0,28,0.00,,,0.00,0.000000,,2013-10-18 12:52:00,
2013-10-18 07:01:00,47.0,13.0,-100.00,North,2,6.0,8.0,25,0.00,,,0.00,0.000000,,2013-10-18 13:01:00,
2013-10-18 07:42:00,47.0,13.0,-100.00,North,2,6.0,8.0,25,0.00,,,0.00,0.000000,,2013-10-18 13:42:00,
2013-10-18 07:52:00,47.0,13.0,-100.00,North,2,6.0,8.0,25,0.00,,,0.00,0.000000,,2013-10-18 13:52:00,
2013-10-18 08:01:00,48.0,13.0,-100.00,North,0,6.0,7.0,24,0.00,,,0.00,12.000000,,2013-10-18 14:01:00,
2013-10-18 08:42:00,48.0,13.0,-100.00,North,0,6.0,7.0,24,0.00,,,0.00,12.000000,,2013-10-18 14:42:00,
2013-10-18 08:52:00,48.0,13.0,-100.00,North,0,6.0,7.0,24,0.00,,,0.00,12.000000,,2013-10-18 14:52:00,
2013-10-18 09:01:00,60.0,15.0,-100.00,NNW,328,5.0,7.0,17,0.00,,,0.00,257.000000,,2013-10-18 15:01:00,
2013-10-18 09:43:00,60.0,15.0,-100.00,NNW,328,5.0,7.0,17,0.00,,,0.00,257.000000,,2013-10-18 15:43:00,
2013-10-18 09:54:00,60.0,15.0,-100.00,NNW,328,5.0,7.0,17,0.00,,,0.00,257.000000,,2013-10-18 15:54:00,
2013-10-18 10:01:00,62.0,15.0,-100.00,West,265,6.0,10.0,16,0.00,,,0.00,466.000000,,2013-10-18 16:01:00,
2013-10-18 10:24:00,62.0,15.0,-100.00,West,265,6.0,10.0,16,0.00,,,0.00,466.000000,,2013-10-18 16:24:00,
2013-10-18 10:33:00,62.0,15.0,-100.00,West,265,6.0,10.0,16,0.00,,,0.00,466.000000,,2013-10-18 16:33:00,
2013-10-18 10:42:00,62.0,15.0,-100.00,West,265,6.0,10.0,16,0.00,,,0.00,466.000000,,2013-10-18 16:42:00,
2013-10-18 10:53:00,62.0,15.0,-100.00,West,265,6.0,10.0,16,0.00,,,0.00,466.000000,,2013-10-18 16:53:00,
2013-10-18 11:01:00,63.0,15.0,-100.00,West,280,7.0,12.0,15,0.00,,,0.00,639.000000,,2013-10-18 17:01:00,
2013-10-18 11:42:00,63.0,15.0,-100.00,West,280,7.0,12.0,15,0.00,,,0.00,639.000000,,2013-10-18 17:42:00,
2013-10-18 11:52:00,63.0,15.0,-100.00,West,280,7.0,12.0,15,0.00,,,0.00,639.000000,,2013-10-18 17:52:00,
2013-10-18 12:01:00,65.0,16.0,-100.00,WSW,254,7.0,12.0,15,0.00,,,0.00,759.000000,,2013-10-18 18:01:00,
2013-10-18 12:42:00,65.0,16.0,-100.00,WSW,254,7.0,12.0,15,0.00,,,0.00,759.000000,,2013-10-18 18:42:00,
2013-10-18 12:52:00,65.0,16.0,-100.00,WSW,254,7.0,12.0,15,0.00,,,0.00,759.000000,,2013-10-18 18:52:00,
2013-10-18 13:01:00,67.0,18.0,-100.00,West,265,8.0,14.0,15,0.00,,,0.00,815.000000,,2013-10-18 19:01:00,
2013-10-18 13:42:00,67.0,18.0,-100.00,West,265,8.0,14.0,15,0.00,,,0.00,815.000000,,2013-10-18 19:42:00,
2013-10-18 13:52:00,67.0,18.0,-100.00,West,265,8.0,14.0,15,0.00,,,0.00,815.000000,,2013-10-18 19:52:00,
2013-10-18 14:01:00,67.0,16.0,-100.00,NW,318,8.0,17.0,14,0.00,,,0.00,801.000000,,2013-10-18 20:01:00,
2013-10-18 14:22:00,67.0,16.0,-100.00,NW,318,8.0,17.0,14,0.00,,,0.00,801.000000,,2013-10-18 20:22:00,
2013-10-18 14:32:00,67.0,16.0,-100.00,NW,318,8.0,17.0,14,0.00,,,0.00,801.000000,,2013-10-18 20:32:00,
2013-10-18 14:42:00,67.0,16.0,-100.00,NW,318,8.0,17.0,14,0.00,,,0.00,801.000000,,2013-10-18 20:42:00,
2013-10-18 14:52:00,67.0,16.0,-100.00,NW,318,8.0,17.0,14,0.00,,,0.00,801.000000,,2013-10-18 20:52:00,
2013-10-18 15:01:00,68.0,15.0,-100.00,NW,320,8.0,17.0,13,0.00,,,0.00,720.000000,,2013-10-18 21:01:00,
2013-10-18 15:45:00,68.0,15.0,-100.00,NW,320,8.0,17.0,13,0.00,,,0.00,720.000000,,2013-10-18 21:45:00,
2013-10-18 15:54:00,68.0,15.0,-100.00,NW,320,8.0,17.0,13,0.00,,,0.00,720.000000,,2013-10-18 21:54:00,
2013-10-18 16:01:00,68.0,17.0,-100.00,North,8,6.0,13.0,14,0.00,,,0.00,579.000000,,2013-10-18 22:01:00,
2013-10-18 16:43:00,68.0,17.0,-100.00,North,8,6.0,13.0,14,0.00,,,0.00,579.000000,,2013-10-18 22:43:00,
2013-10-18 16:54:00,68.0,17.0,-100.00,North,8,6.0,13.0,14,0.00,,,0.00,579.000000,,2013-10-18 22:54:00,
2013-10-18 17:01:00,67.0,13.0,-100.00,NW,320,6.0,13.0,12,0.00,,,0.00,391.000000,,2013-10-18 23:01:00,
2013-10-18 17:43:00,67.0,13.0,-100.00,NW,320,6.0,13.0,12,0.00,,,0.00,391.000000,,2013-10-18 23:43:00,
2013-10-18 17:53:00,67.0,13.0,-100.00,NW,320,6.0,13.0,12,0.00,,,0.00,391.000000,,2013-10-18 23:53:00,
2013-10-18 18:01:00,64.0,14.0,-100.00,NW,319,3.0,10.0,14,0.00,,,0.00,179.000000,,2013-10-19 00:01:00,
2013-10-18 18:22:00,64.0,14.0,-100.00,NW,319,3.0,10.0,14,0.00,,,0.00,179.000000,,2013-10-19 00:22:00,
2013-10-18 18:32:00,64.0,14.0,-100.00,NW,319,3.0,10.0,14,0.00,,,0.00,179.000000,,2013-10-19 00:32:00,
2013-10-18 18:42:00,64.0,14.0,-100.00,NW,319,3.0,10.0,14,0.00,,,0.00,179.000000,,2013-10-19 00:42:00,
2013-10-18 18:52:00,64.0,14.0,-100.00,NW,319,3.0,10.0,14,0.00,,,0.00,179.000000,,2013-10-19 00:52:00,
2013-10-18 19:01:00,56.0,14.0,-100.00,NNE,22,7.0,9.0,19,0.00,,,0.00,8.000000,,2013-10-19 01:01:00,
2013-10-18 19:42:00,56.0,14.0,-100.00,NNE,22,7.0,9.0,19,0.00,,,0.00,8.000000,,2013-10-19 01:42:00,
2013-10-18 19:53:00,56.0,14.0,-100.00,NNE,22,7.0,9.0,19,0.00,,,0.00,8.000000,,2013-10-19 01:53:00,
2013-10-18 20:01:00,51.0,14.0,-100.00,East,92,2.0,9.0,22,0.00,,,0.00,0.000000,,2013-10-19 02:01:00,
2013-10-18 20:42:00,51.0,14.0,-100.00,East,92,2.0,9.0,22,0.00,,,0.00,0.000000,,2013-10-19 02:42:00,
2013-10-18 20:52:00,51.0,14.0,-100.00,East,92,2.0,9.0,22,0.00,,,0.00,0.000000,,2013-10-19 02:52:00,
2013-10-18 21:01:00,51.0,14.0,-100.00,NE,47,2.0,6.0,22,0.00,,,0.00,0.000000,,2013-10-19 03:01:00,
2013-10-18 21:45:00,51.0,14.0,-100.00,NE,47,2.0,6.0,22,0.00,,,0.00,0.000000,,2013-10-19 03:45:00,
2013-10-18 21:55:00,51.0,14.0,-100.00,NE,47,2.0,6.0,22,0.00,,,0.00,0.000000,,2013-10-19 03:55:00,
2013-10-18 22:01:00,51.0,14.0,-100.00,NNE,33,3.0,7.0,22,0.00,,,0.00,0.000000,,2013-10-19 04:01:00,
2013-10-18 22:44:00,51.0,14.0,-100.00,NNE,33,3.0,7.0,22,0.00,,,0.00,0.000000,,2013-10-19 04:44:00,
2013-10-18 22:54:00,51.0,14.0,-100.00,NNE,33,3.0,7.0,22,0.00,,,0.00,0.000000,,2013-10-19 04:54:00,
2013-10-18 23:01:00,47.0,17.0,-100.00,ENE,74,3.0,7.0,30,0.00,,,0.00,0.000000,,2013-10-19 05:01:00,
2013-10-18 23:42:00,47.0,17.0,-100.00,ENE,74,3.0,7.0,30,0.00,,,0.00,0.000000,,2013-10-19 05:42:00,
2013-10-18 23:52:00,47.0,17.0,-100.00,ENE,74,3.0,7.0,30,0.00,,,0.00,0.000000,,2013-10-19 05:52:00,